Time;durP1;ratioP1;P1;durP2;ratioP2;P2;SDS_P1;SDS_P2;PMS_P1;PMS_P2;Temp;Humidity;BMP_temperature;BMP_pressure;BME280_temperature;BME280_humidity;BME280_pressure;Samples;Min_cycle;Max_cycle;Signal;HPM_P1;HPM_P2
2022/12/16 00:00:37;;;;;;;90.15;62.38;;;0.30;99.90;;;;;;5041387;28;20069;-70
2022/12/16 00:03:03;;;;;;;79.68;58.92;;;0.10;99.90;;;;;;5041845;28;20045;-70
2022/12/16 00:05:29;;;;;;;78.68;58.85;;;0.10;99.90;;;;;;5041463;28;20041;-70
2022/12/16 00:07:54;;;;;;;89.43;62.40;;;0.10;99.90;;;;;;5041256;28;20060;-70
2022/12/16 00:10:21;;;;;;;76.72;57.30;;;0.00;99.90;;;;;;5041406;28;20450;-70
2022/12/16 00:12:47;;;;;;;81.78;56.65;;;0.00;99.90;;;;;;5041749;28;20075;-70
2022/12/16 00:15:13;;;;;;;74.30;56.10;;;0.00;99.90;;;;;;5041386;28;20037;-69
2022/12/16 00:17:38;;;;;;;68.95;52.63;;;-0.10;99.90;;;;;;5024107;28;20049;-70
2022/12/16 00:20:04;;;;;;;78.57;56.70;;;-0.20;99.90;;;;;;5023624;28;20055;-70
2022/12/16 00:22:30;;;;;;;85.45;60.50;;;-0.20;99.90;;;;;;5041427;28;20038;-70
2022/12/16 00:24:56;;;;;;;85.53;58.20;;;-0.30;99.90;;;;;;5041084;28;20056;-69
2022/12/16 00:27:21;;;;;;;82.88;59.50;;;-0.20;99.90;;;;;;5023728;28;20045;-70
2022/12/16 00:29:47;;;;;;;83.70;60.83;;;-0.40;99.90;;;;;;5040835;28;20037;-69
2022/12/16 00:32:12;;;;;;;69.22;53.22;;;-0.40;99.90;;;;;;5041224;28;20326;-70
2022/12/16 00:34:38;;;;;;;75.03;55.53;;;-0.40;99.90;;;;;;5007483;28;20069;-70
2022/12/16 00:37:04;;;;;;;77.90;54.08;;;-0.50;99.90;;;;;;5041128;28;20365;-69
2022/12/16 00:39:29;;;;;;;85.88;59.40;;;-0.50;99.90;;;;;;5023808;28;20183;-70
2022/12/16 00:41:55;;;;;;;78.03;57.88;;;-0.60;99.90;;;;;;5023727;28;20365;-69
2022/12/16 00:44:20;;;;;;;80.38;57.53;;;-0.60;99.90;;;;;;5023493;28;20111;-69
2022/12/16 00:46:46;;;;;;;85.70;61.38;;;-0.70;99.90;;;;;;5023523;28;20056;-69
2022/12/16 00:49:11;;;;;;;77.68;56.50;;;-0.70;99.90;;;;;;5041212;28;20045;-69
2022/12/16 00:51:37;;;;;;;82.88;58.85;;;-0.70;99.90;;;;;;5041482;28;20052;-69
2022/12/16 00:54:03;;;;;;;86.68;60.05;;;-0.80;99.90;;;;;;5040799;28;20041;-69
2022/12/16 00:56:28;;;;;;;79.03;57.40;;;-0.80;99.90;;;;;;5041563;28;20058;-70
2022/12/16 00:58:54;;;;;;;79.70;59.47;;;-0.80;99.90;;;;;;5040833;28;20162;-69
2022/12/16 01:01:19;;;;;;;81.55;58.72;;;-0.80;99.90;;;;;;5040920;28;20048;-70
2022/12/16 01:03:45;;;;;;;77.20;58.47;;;-0.80;99.90;;;;;;5040658;28;20077;-70
2022/12/16 01:06:14;;;;;;;89.20;63.17;;;0.20;99.90;;;;;;5039489;28;20458;-70
2022/12/16 01:08:47;;;;;;;83.13;60.72;;;-0.70;99.90;;;;;;5037644;28;20049;-70
2022/12/16 01:11:22;;;;;;;89.85;61.30;;;-0.70;99.90;;;;;;5037565;28;20135;-70
2022/12/16 01:13:51;;;;;;;96.95;66.50;;;-0.70;99.90;;;;;;5037541;28;20053;-70
2022/12/16 01:16:18;;;;;;;87.72;62.30;;;-0.60;99.90;;;;;;5037965;28;20361;-70
2022/12/16 01:18:44;;;;;;;93.57;68.53;;;-0.60;99.90;;;;;;5037304;28;20366;-70
2022/12/16 01:21:12;;;;;;;95.15;67.20;;;-0.50;99.90;;;;;;5037719;28;20041;-70
2022/12/16 01:23:38;;;;;;;95.57;69.80;;;-0.50;99.90;;;;;;5037548;28;20033;-70
2022/12/16 01:26:04;;;;;;;94.88;68.35;;;-0.50;99.90;;;;;;5038243;28;20034;-70
2022/12/16 01:28:30;;;;;;;91.95;63.33;;;-0.50;99.90;;;;;;5037513;28;20084;-70
2022/12/16 01:31:00;;;;;;;84.13;63.92;;;-0.50;99.90;;;;;;5037302;28;20088;-70
2022/12/16 01:33:27;;;;;;;98.32;67.07;;;-0.40;99.90;;;;;;5019853;28;20085;-70
2022/12/16 01:35:58;;;;;;;92.57;64.30;;;-0.40;99.90;;;;;;5036961;28;20081;-70
2022/12/16 01:38:24;;;;;;;81.68;63.15;;;-0.40;99.90;;;;;;5019894;28;20462;-70
2022/12/16 01:40:50;;;;;;;85.65;62.15;;;-0.40;99.90;;;;;;5020197;28;20067;-70
2022/12/16 01:43:19;;;;;;;82.80;59.85;;;-0.10;99.90;;;;;;5037983;28;20053;-70
2022/12/16 01:45:44;;;;;;;83.32;59.35;;;-0.30;99.90;;;;;;5037342;28;20085;-70
2022/12/16 01:48:23;;;;;;;80.53;51.72;;;-0.30;99.90;;;;;;5036805;28;20088;-70
2022/12/16 01:50:51;;;;;;;64.85;49.67;;;-0.20;99.90;;;;;;5037117;28;20041;-70
2022/12/16 01:53:16;;;;;;;78.68;53.63;;;-0.20;99.90;;;;;;5037165;28;20049;-70
2022/12/16 01:55:47;;;;;;;60.65;45.30;;;0.00;99.90;;;;;;5019504;28;20343;-70
2022/12/16 01:58:21;;;;;;;53.60;39.00;;;-0.10;99.90;;;;;;5036909;28;20061;-70
2022/12/16 02:00:47;;;;;;;46.88;33.63;;;0.00;99.90;;;;;;5036755;28;20050;-71
2022/12/16 02:03:14;;;;;;;40.85;30.00;;;0.10;99.90;;;;;;5036436;28;20357;-70
2022/12/16 02:05:41;;;;;;;38.38;27.50;;;0.20;99.90;;;;;;5036951;28;20056;-70
2022/12/16 02:08:17;;;;;;;33.28;24.40;;;0.20;99.90;;;;;;5036296;28;20077;-70
2022/12/16 02:10:42;;;;;;;33.63;22.80;;;0.30;99.90;;;;;;5036667;28;20057;-70
2022/12/16 02:13:10;;;;;;;35.40;19.88;;;0.40;99.90;;;;;;5036988;28;20335;-70
2022/12/16 02:16:06;;;;;;;27.52;18.13;;;0.40;99.90;;;;;;5036616;28;20103;-70
2022/12/16 02:18:42;;;;;;;27.98;15.77;;;0.50;99.90;;;;;;5016794;28;20052;-71
2022/12/16 02:21:26;;;;;;;23.98;14.68;;;0.60;99.90;;;;;;5017537;28;20499;-70
2022/12/16 02:23:55;;;;;;;22.73;14.30;;;0.70;99.90;;;;;;5016612;28;20116;-70
2022/12/16 02:26:32;;;;;;;17.05;12.65;;;0.80;99.90;;;;;;5029936;28;20140;-70
2022/12/16 02:29:00;;;;;;;21.05;12.52;;;0.90;99.90;;;;;;5035864;28;20055;-70
2022/12/16 02:31:50;;;;;;;22.88;14.43;;;0.90;99.90;;;;;;5036178;28;20438;-70
2022/12/16 02:34:31;;;;;;;17.17;12.93;;;1.00;99.90;;;;;;5036520;28;20419;-70
2022/12/16 02:36:56;;;;;;;16.92;12.98;;;0.90;99.90;;;;;;5036326;28;20038;-70
2022/12/16 02:39:30;;;;;;;18.02;13.77;;;1.10;99.90;;;;;;5036383;28;20067;-71
2022/12/16 02:42:25;;;;;;;19.17;12.85;;;1.00;99.90;;;;;;5035741;28;20049;-70
2022/12/16 02:45:09;;;;;;;15.73;12.10;;;1.00;99.90;;;;;;5036053;28;20056;-70
2022/12/16 02:47:35;;;;;;;17.50;12.25;;;1.00;99.90;;;;;;5035654;28;20092;-70
2022/12/16 02:50:01;;;;;;;16.45;13.43;;;1.00;99.90;;;;;;5036222;28;20056;-69
2022/12/16 02:52:31;;;;;;;16.85;12.07;;;1.00;99.90;;;;;;5035733;28;20045;-70
2022/12/16 02:55:03;;;;;;;19.13;11.93;;;1.00;99.90;;;;;;5036102;28;20438;-70
2022/12/16 02:57:40;;;;;;;18.58;11.30;;;1.00;99.90;;;;;;5035371;28;20057;-70
2022/12/16 03:00:14;;;;;;;15.55;12.13;;;1.00;99.90;;;;;;5035969;28;20170;-70
2022/12/16 03:03:11;;;;;;;14.48;10.10;;;1.00;99.90;;;;;;5035615;28;20128;-70
2022/12/16 03:05:49;;;;;;;18.83;11.35;;;1.00;99.90;;;;;;5018584;28;20050;-70
2022/12/16 03:08:21;;;;;;;15.27;8.60;;;1.00;99.90;;;;;;5036096;28;20049;-70
2022/12/16 03:10:53;;;;;;;16.00;10.40;;;1.10;99.90;;;;;;5035587;28;20046;-70
2022/12/16 03:13:20;;;;;;;17.42;10.70;;;1.10;99.90;;;;;;5035115;28;20085;-70
2022/12/16 03:15:48;;;;;;;16.02;10.20;;;1.10;99.90;;;;;;5035474;28;20045;-70
2022/12/16 03:18:15;;;;;;;12.20;9.73;;;1.10;99.90;;;;;;5035321;28;20474;-70
2022/12/16 03:21:00;;;;;;;15.13;9.85;;;1.10;99.90;;;;;;5035714;28;20369;-70
2022/12/16 03:23:43;;;;;;;14.77;9.60;;;1.10;99.90;;;;;;5035282;28;20049;-70
2022/12/16 03:26:18;;;;;;;15.93;9.77;;;1.90;99.90;;;;;;5034973;28;20041;-71
2022/12/16 03:28:52;;;;;;;14.52;10.10;;;1.10;99.90;;;;;;5018451;28;20061;-70
2022/12/16 03:31:48;;;;;;;14.98;9.73;;;1.10;99.90;;;;;;5035430;28;20041;-70
2022/12/16 03:34:24;;;;;;;14.82;11.27;;;1.20;99.90;;;;;;5013035;28;20068;-70
2022/12/16 03:36:56;;;;;;;18.35;12.02;;;1.20;99.90;;;;;;5018051;28;20053;-71
2022/12/16 03:39:23;;;;;;;15.88;11.85;;;1.30;99.90;;;;;;5035207;28;20056;-71
2022/12/16 03:41:53;;;;;;;17.48;12.65;;;1.30;99.90;;;;;;5034863;28;20056;-70
2022/12/16 03:44:20;;;;;;;18.35;12.95;;;1.30;99.90;;;;;;5035859;28;20350;-70
2022/12/16 03:46:47;;;;;;;19.10;14.30;;;1.30;99.90;;;;;;5035659;28;20347;-70
2022/12/16 03:49:13;;;;;;;24.27;17.35;;;1.30;99.90;;;;;;5035644;28;20045;-70
2022/12/16 03:51:38;;;;;;;25.42;16.35;;;1.30;99.90;;;;;;5034860;28;20045;-70
2022/12/16 03:54:04;;;;;;;26.50;18.08;;;1.30;99.90;;;;;;5035085;28;20370;-70
2022/12/16 03:56:29;;;;;;;25.13;18.55;;;1.30;99.90;;;;;;5017282;28;20056;-70
2022/12/16 03:58:55;;;;;;;26.95;19.75;;;1.30;99.90;;;;;;5034699;28;20069;-70
2022/12/16 04:01:22;;;;;;;25.00;20.60;;;1.30;99.90;;;;;;5034806;28;20049;-71
2022/12/16 04:03:48;;;;;;;26.92;22.55;;;1.30;99.90;;;;;;5033920;28;20045;-70
2022/12/16 04:06:17;;;;;;;28.80;24.48;;;1.40;99.90;;;;;;5034921;28;20052;-71
2022/12/16 04:08:45;;;;;;;30.05;26.45;;;1.40;99.90;;;;;;5034841;28;20458;-70
2022/12/16 04:25:12;;;;;;;61.17;47.92;;;1.70;99.90;;;;;;5014891;28;20050;-70
2022/12/16 04:27:38;;;;;;;63.55;49.17;;;1.70;99.90;;;;;;5028947;28;20485;-70
2022/12/16 04:30:20;;;;;;;69.68;51.85;;;1.70;99.90;;;;;;5034770;28;20042;-69
